Terminal Aerodrome Forecast
Issued by NWS Charleston, WV

Current Version | Previous Version | Text Only | Print | Product List | Glossary Off
Versions: 1 2 3 4 5 6 7 8 9 10 11 12 13 14 15 16 17 18 19 20 21

362
FTUS41 KRLX 231733
TAFHTS
TAF
KHTS 231733Z 2318/2418 VRB04KT P6SM BKN150
     FM232000 VRB03KT 6SM SHRA BKN040
     FM240100 VRB02KT P6SM BKN023
     FM240600 VRB02KT 5SM BR BKN009
     FM241100 VRB02KT 2SM BR BKN009
     FM241200 12004KT 3SM BR BKN013
     FM241300 13005KT P6SM BKN019
     FM241400 13005KT 6SM SHRA VCTS BKN021CB=

USA.gov is the U.S. government's official web portal to all federal, state and local government web resources and services.